In Rescue
 
Open Full Screen Window  High Contrast Mode
Wind Gusting 17 knots
04
May 20, 2019 2:12 PM CDT
Weather Information
Wind Direction
  020 °
Wind Speed
  04 kt (5 mph)
Wind Gust
  17 kt (20 mph)
Altimeter
30.12 in
Visibility
10 SM
Temperature
20° C
68° F
Dewpoint
-03° C
27° F
Humidity
21%
1hr Rain Fall
00.00 in.
24hr Rain Fall
00.00 in.
Sky Condition
Clear
VFR

METAR KHCO 201912Z AUTO 02004G17KT 10SM CLR 20/M03 A3012 RMK AO2

FAA Disclaimer: The data displayed is for advisory purposes only and is not to be used for flight planning or operations.